sensor_id;sensor_type;location;lat;lon;timestamp;pressure;altitude;pressure_sealevel;temperature;humidity
75745;BME280;74462;51.366;-0.222;2024-03-06T00:00:57;101574.19;;;4.86;79.46
75745;BME280;74462;51.366;-0.222;2024-03-06T00:02:01;101575.02;;;4.83;80.04
75745;BME280;74462;51.366;-0.222;2024-03-06T00:03:06;101572.19;;;4.88;79.94
75745;BME280;74462;51.366;-0.222;2024-03-06T00:04:11;101572.83;;;4.89;80.03
75745;BME280;74462;51.366;-0.222;2024-03-06T00:05:15;101571.23;;;4.90;80.11
75745;BME280;74462;51.366;-0.222;2024-03-06T00:06:20;101572.34;;;4.92;80.10
75745;BME280;74462;51.366;-0.222;2024-03-06T00:07:24;101574.69;;;4.91;80.11
75745;BME280;74462;51.366;-0.222;2024-03-06T00:08:29;101573.20;;;4.92;80.01
75745;BME280;74462;51.366;-0.222;2024-03-06T00:09:34;101573.77;;;4.92;79.70
75745;BME280;74462;51.366;-0.222;2024-03-06T00:10:40;101574.27;;;4.88;79.63
75745;BME280;74462;51.366;-0.222;2024-03-06T00:11:44;101574.34;;;4.91;79.49
75745;BME280;74462;51.366;-0.222;2024-03-06T00:12:49;101577.59;;;4.93;79.43
75745;BME280;74462;51.366;-0.222;2024-03-06T00:13:53;101577.64;;;4.96;79.45
75745;BME280;74462;51.366;-0.222;2024-03-06T00:14:57;101577.23;;;4.98;79.03
75745;BME280;74462;51.366;-0.222;2024-03-06T00:16:02;101575.54;;;4.92;78.88
75745;BME280;74462;51.366;-0.222;2024-03-06T00:17:07;101577.80;;;4.92;78.60
75745;BME280;74462;51.366;-0.222;2024-03-06T00:18:12;101578.73;;;4.91;78.48
75745;BME280;74462;51.366;-0.222;2024-03-06T00:19:17;101580.98;;;4.97;78.11
75745;BME280;74462;51.366;-0.222;2024-03-06T00:20:22;101581.38;;;4.95;78.05
75745;BME280;74462;51.366;-0.222;2024-03-06T00:21:26;101580.54;;;4.99;77.63
75745;BME280;74462;51.366;-0.222;2024-03-06T00:22:31;101581.17;;;4.96;77.17
75745;BME280;74462;51.366;-0.222;2024-03-06T00:23:36;101580.70;;;4.95;76.98
75745;BME280;74462;51.366;-0.222;2024-03-06T00:24:40;101579.77;;;4.96;76.84
75745;BME280;74462;51.366;-0.222;2024-03-06T00:25:44;101582.02;;;4.97;77.26
75745;BME280;74462;51.366;-0.222;2024-03-06T00:26:49;101582.04;;;5.01;77.13
75745;BME280;74462;51.366;-0.222;2024-03-06T00:27:54;101581.05;;;5.03;77.17
75745;BME280;74462;51.366;-0.222;2024-03-06T00:28:58;101583.53;;;5.03;77.31
75745;BME280;74462;51.366;-0.222;2024-03-06T00:30:03;101584.52;;;5.01;77.41
75745;BME280;74462;51.366;-0.222;2024-03-06T00:31:08;101586.14;;;4.95;77.38
75745;BME280;74462;51.366;-0.222;2024-03-06T00:32:12;101585.57;;;4.92;77.10
75745;BME280;74462;51.366;-0.222;2024-03-06T00:33:17;101587.88;;;4.91;77.05
75745;BME280;74462;51.366;-0.222;2024-03-06T00:34:21;101590.88;;;4.95;76.99
75745;BME280;74462;51.366;-0.222;2024-03-06T00:35:25;101590.09;;;4.98;77.05
75745;BME280;74462;51.366;-0.222;2024-03-06T00:36:31;101594.27;;;4.99;77.31
75745;BME280;74462;51.366;-0.222;2024-03-06T00:37:36;101591.06;;;5.00;77.24
75745;BME280;74462;51.366;-0.222;2024-03-06T00:38:41;101595.26;;;5.01;77.17
75745;BME280;74462;51.366;-0.222;2024-03-06T00:39:45;101597.04;;;5.00;77.12
75745;BME280;74462;51.366;-0.222;2024-03-06T00:40:50;101598.37;;;4.97;77.48
75745;BME280;74462;51.366;-0.222;2024-03-06T00:41:55;101595.50;;;4.82;76.99
75745;BME280;74462;51.366;-0.222;2024-03-06T00:42:59;101596.22;;;4.78;76.97
75745;BME280;74462;51.366;-0.222;2024-03-06T00:44:04;101599.16;;;4.66;77.36
75745;BME280;74462;51.366;-0.222;2024-03-06T00:45:09;101600.86;;;4.54;77.76
75745;BME280;74462;51.366;-0.222;2024-03-06T00:46:14;101602.40;;;4.51;78.24
75745;BME280;74462;51.366;-0.222;2024-03-06T00:47:18;101603.77;;;4.48;78.81
75745;BME280;74462;51.366;-0.222;2024-03-06T00:48:24;101602.10;;;4.45;79.01
75745;BME280;74462;51.366;-0.222;2024-03-06T00:49:29;101600.57;;;4.40;79.51
75745;BME280;74462;51.366;-0.222;2024-03-06T00:50:34;101600.17;;;4.41;79.62
75745;BME280;74462;51.366;-0.222;2024-03-06T00:51:38;101602.12;;;4.41;79.53
75745;BME280;74462;51.366;-0.222;2024-03-06T00:52:42;101604.15;;;4.42;79.87
75745;BME280;74462;51.366;-0.222;2024-03-06T00:53:47;101605.69;;;4.48;79.65
75745;BME280;74462;51.366;-0.222;2024-03-06T00:54:51;101606.38;;;4.44;79.71
75745;BME280;74462;51.366;-0.222;2024-03-06T00:55:56;101599.77;;;4.46;79.53
75745;BME280;74462;51.366;-0.222;2024-03-06T00:57:00;101600.42;;;4.52;79.21
75745;BME280;74462;51.366;-0.222;2024-03-06T00:58:05;101600.16;;;4.54;78.63
75745;BME280;74462;51.366;-0.222;2024-03-06T00:59:10;101601.28;;;4.57;78.60
75745;BME280;74462;51.366;-0.222;2024-03-06T01:00:16;101601.83;;;4.60;78.71
75745;BME280;74462;51.366;-0.222;2024-03-06T01:01:20;101603.48;;;4.63;78.86
75745;BME280;74462;51.366;-0.222;2024-03-06T01:02:25;101601.06;;;4.67;78.92
75745;BME280;74462;51.366;-0.222;2024-03-06T01:03:29;101605.88;;;4.65;79.06
75745;BME280;74462;51.366;-0.222;2024-03-06T01:04:34;101606.05;;;4.61;79.30
75745;BME280;74462;51.366;-0.222;2024-03-06T01:05:38;101605.55;;;4.60;79.74
75745;BME280;74462;51.366;-0.222;2024-03-06T01:06:42;101609.54;;;4.57;79.55
75745;BME280;74462;51.366;-0.222;2024-03-06T01:07:48;101605.23;;;4.59;78.91
75745;BME280;74462;51.366;-0.222;2024-03-06T01:08:53;101602.44;;;4.63;78.99
75745;BME280;74462;51.366;-0.222;2024-03-06T01:09:57;101606.36;;;4.62;78.70
75745;BME280;74462;51.366;-0.222;2024-03-06T01:11:02;101607.11;;;4.61;78.55
75745;BME280;74462;51.366;-0.222;2024-03-06T01:12:07;101609.95;;;4.60;78.52
75745;BME280;74462;51.366;-0.222;2024-03-06T01:13:12;101609.63;;;4.51;78.33
75745;BME280;74462;51.366;-0.222;2024-03-06T01:14:16;101610.33;;;4.55;78.45
75745;BME280;74462;51.366;-0.222;2024-03-06T01:15:20;101606.83;;;4.59;78.56
75745;BME280;74462;51.366;-0.222;2024-03-06T01:16:25;101608.77;;;4.63;79.02
75745;BME280;74462;51.366;-0.222;2024-03-06T01:17:29;101608.36;;;4.60;78.71
75745;BME280;74462;51.366;-0.222;2024-03-06T01:18:33;101609.91;;;4.61;78.45
75745;BME280;74462;51.366;-0.222;2024-03-06T01:19:38;101609.89;;;4.61;77.99
75745;BME280;74462;51.366;-0.222;2024-03-06T01:20:42;101611.29;;;4.57;77.66
75745;BME280;74462;51.366;-0.222;2024-03-06T01:21:46;101612.36;;;4.61;77.98
75745;BME280;74462;51.366;-0.222;2024-03-06T01:22:51;101608.94;;;4.63;77.92
75745;BME280;74462;51.366;-0.222;2024-03-06T01:23:56;101608.64;;;4.66;77.92
75745;BME280;74462;51.366;-0.222;2024-03-06T01:25:00;101605.48;;;4.70;77.91
75745;BME280;74462;51.366;-0.222;2024-03-06T01:26:05;101607.45;;;4.74;77.88
75745;BME280;74462;51.366;-0.222;2024-03-06T01:27:10;101607.01;;;4.76;77.99
75745;BME280;74462;51.366;-0.222;2024-03-06T01:28:14;101606.10;;;4.72;78.56
75745;BME280;74462;51.366;-0.222;2024-03-06T01:29:19;101604.39;;;4.76;78.51
75745;BME280;74462;51.366;-0.222;2024-03-06T01:30:23;101604.98;;;4.78;78.20
75745;BME280;74462;51.366;-0.222;2024-03-06T01:31:27;101603.13;;;4.81;77.99
75745;BME280;74462;51.366;-0.222;2024-03-06T01:32:32;101603.95;;;4.78;77.74
75745;BME280;74462;51.366;-0.222;2024-03-06T01:33:36;101606.12;;;4.72;77.32
75745;BME280;74462;51.366;-0.222;2024-03-06T01:34:41;101602.70;;;4.70;77.21
75745;BME280;74462;51.366;-0.222;2024-03-06T01:35:45;101604.26;;;4.70;77.03
75745;BME280;74462;51.366;-0.222;2024-03-06T01:36:50;101606.33;;;4.71;76.91
75745;BME280;74462;51.366;-0.222;2024-03-06T01:37:54;101609.19;;;4.70;77.00
75745;BME280;74462;51.366;-0.222;2024-03-06T01:38:58;101610.36;;;4.71;77.12
75745;BME280;74462;51.366;-0.222;2024-03-06T01:40:03;101608.20;;;4.73;77.33
75745;BME280;74462;51.366;-0.222;2024-03-06T01:41:08;101611.52;;;4.73;77.59
75745;BME280;74462;51.366;-0.222;2024-03-06T01:42:13;101610.48;;;4.73;77.52
75745;BME280;74462;51.366;-0.222;2024-03-06T01:43:22;101612.80;;;4.68;77.53
75745;BME280;74462;51.366;-0.222;2024-03-06T01:44:27;101611.56;;;4.64;77.70
75745;BME280;74462;51.366;-0.222;2024-03-06T01:45:32;101616.81;;;4.52;77.65
75745;BME280;74462;51.366;-0.222;2024-03-06T01:46:36;101616.37;;;4.45;77.67
75745;BME280;74462;51.366;-0.222;2024-03-06T01:47:40;101617.79;;;4.36;77.60
75745;BME280;74462;51.366;-0.222;2024-03-06T01:48:45;101615.29;;;4.32;77.29
75745;BME280;74462;51.366;-0.222;2024-03-06T01:49:50;101617.02;;;4.33;77.03
75745;BME280;74462;51.366;-0.222;2024-03-06T01:50:57;101617.20;;;4.33;76.99
75745;BME280;74462;51.366;-0.222;2024-03-06T01:52:03;101619.30;;;4.34;77.36
75745;BME280;74462;51.366;-0.222;2024-03-06T01:53:08;101620.85;;;4.34;77.34
75745;BME280;74462;51.366;-0.222;2024-03-06T01:54:13;101624.02;;;4.34;77.71
75745;BME280;74462;51.366;-0.222;2024-03-06T01:55:19;101622.17;;;4.32;77.86
75745;BME280;74462;51.366;-0.222;2024-03-06T01:56:24;101622.34;;;4.22;77.74
75745;BME280;74462;51.366;-0.222;2024-03-06T01:57:30;101624.95;;;4.14;77.41
75745;BME280;74462;51.366;-0.222;2024-03-06T01:58:35;101622.27;;;4.11;77.41
75745;BME280;74462;51.366;-0.222;2024-03-06T01:59:39;101624.13;;;4.13;77.36
75745;BME280;74462;51.366;-0.222;2024-03-06T02:00:45;101619.05;;;4.21;77.42
75745;BME280;74462;51.366;-0.222;2024-03-06T02:01:49;101616.92;;;4.21;77.42
75745;BME280;74462;51.366;-0.222;2024-03-06T02:02:56;101617.16;;;4.20;77.57
75745;BME280;74462;51.366;-0.222;2024-03-06T02:04:01;101615.02;;;4.17;77.87
75745;BME280;74462;51.366;-0.222;2024-03-06T02:05:06;101618.15;;;4.13;78.29
75745;BME280;74462;51.366;-0.222;2024-03-06T02:06:11;101621.27;;;4.05;78.52
75745;BME280;74462;51.366;-0.222;2024-03-06T02:07:17;101624.04;;;4.06;78.60
75745;BME280;74462;51.366;-0.222;2024-03-06T02:08:22;101619.26;;;4.07;78.06
75745;BME280;74462;51.366;-0.222;2024-03-06T02:09:27;101628.06;;;4.02;78.00
75745;BME280;74462;51.366;-0.222;2024-03-06T02:10:31;101624.73;;;4.02;77.82
75745;BME280;74462;51.366;-0.222;2024-03-06T02:11:36;101626.06;;;4.04;77.76
75745;BME280;74462;51.366;-0.222;2024-03-06T02:12:40;101627.13;;;4.04;77.78
75745;BME280;74462;51.366;-0.222;2024-03-06T02:13:45;101627.63;;;4.09;77.55
75745;BME280;74462;51.366;-0.222;2024-03-06T02:14:50;101627.43;;;4.09;77.97
75745;BME280;74462;51.366;-0.222;2024-03-06T02:15:54;101627.41;;;4.10;77.87
75745;BME280;74462;51.366;-0.222;2024-03-06T02:16:59;101632.11;;;4.11;78.02
75745;BME280;74462;51.366;-0.222;2024-03-06T02:18:07;101633.30;;;4.12;78.00
75745;BME280;74462;51.366;-0.222;2024-03-06T02:19:12;101633.73;;;4.10;78.36
75745;BME280;74462;51.366;-0.222;2024-03-06T02:21:26;101633.96;;;4.09;78.60
75745;BME280;74462;51.366;-0.222;2024-03-06T02:22:31;101630.84;;;4.03;78.58
75745;BME280;74462;51.366;-0.222;2024-03-06T02:23:36;101632.46;;;3.97;78.42
75745;BME280;74462;51.366;-0.222;2024-03-06T02:24:47;101633.98;;;4.04;78.22
75745;BME280;74462;51.366;-0.222;2024-03-06T02:25:52;101631.02;;;4.03;78.21
75745;BME280;74462;51.366;-0.222;2024-03-06T02:26:57;101628.98;;;3.92;77.82
75745;BME280;74462;51.366;-0.222;2024-03-06T02:28:02;101630.77;;;3.91;78.05
75745;BME280;74462;51.366;-0.222;2024-03-06T02:29:06;101633.69;;;3.92;78.33
75745;BME280;74462;51.366;-0.222;2024-03-06T02:30:12;101633.05;;;3.95;78.03
75745;BME280;74462;51.366;-0.222;2024-03-06T02:31:17;101631.80;;;4.00;77.63
75745;BME280;74462;51.366;-0.222;2024-03-06T02:32:21;101632.01;;;4.05;77.66
75745;BME280;74462;51.366;-0.222;2024-03-06T02:33:26;101626.34;;;4.06;77.51
75745;BME280;74462;51.366;-0.222;2024-03-06T02:34:30;101624.48;;;4.04;77.59
75745;BME280;74462;51.366;-0.222;2024-03-06T02:35:35;101622.79;;;4.01;77.45
75745;BME280;74462;51.366;-0.222;2024-03-06T02:36:41;101623.19;;;4.01;77.60
75745;BME280;74462;51.366;-0.222;2024-03-06T02:37:45;101623.14;;;4.02;77.65
75745;BME280;74462;51.366;-0.222;2024-03-06T02:38:50;101628.92;;;4.03;77.62
75745;BME280;74462;51.366;-0.222;2024-03-06T02:39:54;101627.48;;;4.04;77.83
75745;BME280;74462;51.366;-0.222;2024-03-06T02:40:59;101632.90;;;4.05;78.13
75745;BME280;74462;51.366;-0.222;2024-03-06T02:42:03;101629.12;;;4.07;78.13
75745;BME280;74462;51.366;-0.222;2024-03-06T02:43:08;101628.27;;;4.07;78.12
75745;BME280;74462;51.366;-0.222;2024-03-06T02:44:12;101627.52;;;4.03;77.91
75745;BME280;74462;51.366;-0.222;2024-03-06T02:45:17;101626.30;;;4.02;77.80
75745;BME280;74462;51.366;-0.222;2024-03-06T02:46:21;101623.11;;;4.03;77.55
75745;BME280;74462;51.366;-0.222;2024-03-06T02:47:26;101625.81;;;3.96;77.66
75745;BME280;74462;51.366;-0.222;2024-03-06T02:48:30;101625.11;;;3.96;78.04
75745;BME280;74462;51.366;-0.222;2024-03-06T02:49:35;101626.02;;;4.00;77.85
75745;BME280;74462;51.366;-0.222;2024-03-06T02:50:39;101624.12;;;3.99;77.83
75745;BME280;74462;51.366;-0.222;2024-03-06T02:51:43;101621.52;;;3.98;77.75
75745;BME280;74462;51.366;-0.222;2024-03-06T02:52:48;101621.71;;;3.98;77.44
75745;BME280;74462;51.366;-0.222;2024-03-06T02:53:54;101619.81;;;3.97;77.37
75745;BME280;74462;51.366;-0.222;2024-03-06T02:54:59;101619.91;;;3.95;77.15
75745;BME280;74462;51.366;-0.222;2024-03-06T02:56:04;101618.77;;;3.88;78.18
75745;BME280;74462;51.366;-0.222;2024-03-06T02:57:09;101618.60;;;3.92;78.57
75745;BME280;74462;51.366;-0.222;2024-03-06T02:58:13;101620.07;;;3.91;78.44
75745;BME280;74462;51.366;-0.222;2024-03-06T02:59:19;101624.18;;;3.93;78.72
75745;BME280;74462;51.366;-0.222;2024-03-06T03:00:23;101622.67;;;3.96;78.71
75745;BME280;74462;51.366;-0.222;2024-03-06T03:01:28;101624.36;;;3.93;78.38
75745;BME280;74462;51.366;-0.222;2024-03-06T03:02:32;101620.78;;;3.81;77.67
75745;BME280;74462;51.366;-0.222;2024-03-06T03:03:37;101623.85;;;3.79;77.78
75745;BME280;74462;51.366;-0.222;2024-03-06T03:04:44;101617.27;;;3.76;77.59
75745;BME280;74462;51.366;-0.222;2024-03-06T03:05:48;101618.02;;;3.75;78.03
75745;BME280;74462;51.366;-0.222;2024-03-06T03:06:53;101619.52;;;3.72;78.43
75745;BME280;74462;51.366;-0.222;2024-03-06T03:07:57;101617.39;;;3.73;78.77
75745;BME280;74462;51.366;-0.222;2024-03-06T03:09:02;101622.86;;;3.67;78.67
75745;BME280;74462;51.366;-0.222;2024-03-06T03:10:08;101619.88;;;3.67;78.87
75745;BME280;74462;51.366;-0.222;2024-03-06T03:11:13;101623.27;;;3.66;78.59
75745;BME280;74462;51.366;-0.222;2024-03-06T03:12:18;101621.13;;;3.57;77.78
75745;BME280;74462;51.366;-0.222;2024-03-06T03:13:23;101619.65;;;3.59;77.56
75745;BME280;74462;51.366;-0.222;2024-03-06T03:14:27;101621.55;;;3.60;77.84
75745;BME280;74462;51.366;-0.222;2024-03-06T03:15:31;101623.08;;;3.61;77.96
75745;BME280;74462;51.366;-0.222;2024-03-06T03:16:36;101620.07;;;3.62;78.40
75745;BME280;74462;51.366;-0.222;2024-03-06T03:17:40;101620.70;;;3.59;78.54
75745;BME280;74462;51.366;-0.222;2024-03-06T03:18:45;101617.70;;;3.60;79.00
75745;BME280;74462;51.366;-0.222;2024-03-06T03:19:50;101621.95;;;3.59;79.23
75745;BME280;74462;51.366;-0.222;2024-03-06T03:20:55;101621.58;;;3.64;79.27
75745;BME280;74462;51.366;-0.222;2024-03-06T03:22:00;101621.27;;;3.68;79.19
75745;BME280;74462;51.366;-0.222;2024-03-06T03:23:07;101620.23;;;3.72;79.04
75745;BME280;74462;51.366;-0.222;2024-03-06T03:24:14;101620.36;;;3.73;79.17
75745;BME280;74462;51.366;-0.222;2024-03-06T03:25:19;101620.35;;;3.74;79.18
75745;BME280;74462;51.366;-0.222;2024-03-06T03:26:26;101619.41;;;3.70;78.88
75745;BME280;74462;51.366;-0.222;2024-03-06T03:27:31;101620.81;;;3.70;78.76
75745;BME280;74462;51.366;-0.222;2024-03-06T03:28:36;101620.84;;;3.69;78.55
75745;BME280;74462;51.366;-0.222;2024-03-06T03:29:42;101622.64;;;3.68;78.31
75745;BME280;74462;51.366;-0.222;2024-03-06T03:30:46;101623.52;;;3.68;78.57
75745;BME280;74462;51.366;-0.222;2024-03-06T03:31:51;101623.02;;;3.73;79.35
75745;BME280;74462;51.366;-0.222;2024-03-06T03:32:56;101621.09;;;3.77;79.05
75745;BME280;74462;51.366;-0.222;2024-03-06T03:34:00;101623.89;;;3.73;79.55
75745;BME280;74462;51.366;-0.222;2024-03-06T03:35:05;101623.77;;;3.71;79.68
75745;BME280;74462;51.366;-0.222;2024-03-06T03:36:10;101622.75;;;3.70;79.44
75745;BME280;74462;51.366;-0.222;2024-03-06T03:37:15;101625.13;;;3.67;79.88
75745;BME280;74462;51.366;-0.222;2024-03-06T03:38:20;101624.58;;;3.63;79.98
75745;BME280;74462;51.366;-0.222;2024-03-06T03:39:24;101626.47;;;3.60;79.27
75745;BME280;74462;51.366;-0.222;2024-03-06T03:40:30;101625.66;;;3.63;78.88
75745;BME280;74462;51.366;-0.222;2024-03-06T03:41:36;101625.80;;;3.54;78.81
75745;BME280;74462;51.366;-0.222;2024-03-06T03:42:40;101623.65;;;3.56;78.94
75745;BME280;74462;51.366;-0.222;2024-03-06T03:43:45;101622.91;;;3.57;79.31
75745;BME280;74462;51.366;-0.222;2024-03-06T03:44:49;101620.81;;;3.56;79.68
75745;BME280;74462;51.366;-0.222;2024-03-06T03:45:53;101620.55;;;3.59;79.68
75745;BME280;74462;51.366;-0.222;2024-03-06T03:46:58;101622.89;;;3.62;79.63
75745;BME280;74462;51.366;-0.222;2024-03-06T03:48:03;101622.96;;;3.64;79.70
75745;BME280;74462;51.366;-0.222;2024-03-06T03:49:08;101624.89;;;3.69;79.87
75745;BME280;74462;51.366;-0.222;2024-03-06T03:50:13;101627.45;;;3.71;80.02
75745;BME280;74462;51.366;-0.222;2024-03-06T03:51:18;101627.27;;;3.76;79.89
75745;BME280;74462;51.366;-0.222;2024-03-06T03:52:22;101626.37;;;3.77;80.52
75745;BME280;74462;51.366;-0.222;2024-03-06T03:53:27;101628.78;;;3.79;80.94
75745;BME280;74462;51.366;-0.222;2024-03-06T03:54:31;101626.10;;;3.80;81.23
75745;BME280;74462;51.366;-0.222;2024-03-06T03:55:36;101625.89;;;3.81;81.42
75745;BME280;74462;51.366;-0.222;2024-03-06T03:56:40;101625.16;;;3.86;81.20
75745;BME280;74462;51.366;-0.222;2024-03-06T03:57:44;101628.34;;;3.90;81.18
75745;BME280;74462;51.366;-0.222;2024-03-06T03:58:49;101629.56;;;3.95;81.27
75745;BME280;74462;51.366;-0.222;2024-03-06T03:59:53;101630.48;;;3.98;81.22
75745;BME280;74462;51.366;-0.222;2024-03-06T04:00:57;101631.23;;;4.01;81.24
75745;BME280;74462;51.366;-0.222;2024-03-06T04:02:02;101633.08;;;4.05;81.49
75745;BME280;74462;51.366;-0.222;2024-03-06T04:03:07;101630.35;;;4.03;81.73
75745;BME280;74462;51.366;-0.222;2024-03-06T04:04:11;101629.02;;;3.95;81.50
75745;BME280;74462;51.366;-0.222;2024-03-06T04:05:16;101630.34;;;3.97;81.19
75745;BME280;74462;51.366;-0.222;2024-03-06T04:06:20;101628.55;;;3.98;81.06
75745;BME280;74462;51.366;-0.222;2024-03-06T04:07:24;101624.52;;;4.03;80.89
75745;BME280;74462;51.366;-0.222;2024-03-06T04:08:29;101627.31;;;4.08;80.89
75745;BME280;74462;51.366;-0.222;2024-03-06T04:09:33;101626.42;;;4.12;80.96
75745;BME280;74462;51.366;-0.222;2024-03-06T04:10:39;101622.41;;;4.16;81.03
75745;BME280;74462;51.366;-0.222;2024-03-06T04:11:43;101623.95;;;4.22;80.93
75745;BME280;74462;51.366;-0.222;2024-03-06T04:12:48;101622.56;;;4.26;80.97
75745;BME280;74462;51.366;-0.222;2024-03-06T04:13:53;101623.08;;;4.31;81.07
75745;BME280;74462;51.366;-0.222;2024-03-06T04:14:57;101622.53;;;4.36;81.11
75745;BME280;74462;51.366;-0.222;2024-03-06T04:16:02;101623.73;;;4.41;81.17
75745;BME280;74462;51.366;-0.222;2024-03-06T04:17:06;101623.91;;;4.45;81.08
75745;BME280;74462;51.366;-0.222;2024-03-06T04:18:11;101621.30;;;4.49;80.92
75745;BME280;74462;51.366;-0.222;2024-03-06T04:19:15;101625.38;;;4.53;80.99
75745;BME280;74462;51.366;-0.222;2024-03-06T04:20:20;101624.55;;;4.56;81.23
75745;BME280;74462;51.366;-0.222;2024-03-06T04:21:24;101625.00;;;4.58;81.37
75745;BME280;74462;51.366;-0.222;2024-03-06T04:22:29;101627.08;;;4.59;81.61
75745;BME280;74462;51.366;-0.222;2024-03-06T04:23:33;101627.50;;;4.61;81.81
75745;BME280;74462;51.366;-0.222;2024-03-06T04:24:42;101629.70;;;4.63;81.93
75745;BME280;74462;51.366;-0.222;2024-03-06T04:25:46;101630.61;;;4.67;81.83
75745;BME280;74462;51.366;-0.222;2024-03-06T04:26:51;101629.61;;;4.70;81.55
75745;BME280;74462;51.366;-0.222;2024-03-06T04:27:55;101630.34;;;4.74;81.37
75745;BME280;74462;51.366;-0.222;2024-03-06T04:29:00;101627.21;;;4.77;81.23
75745;BME280;74462;51.366;-0.222;2024-03-06T04:30:06;101630.80;;;4.79;81.15
75745;BME280;74462;51.366;-0.222;2024-03-06T04:31:10;101628.01;;;4.83;80.99
75745;BME280;74462;51.366;-0.222;2024-03-06T04:32:15;101626.69;;;4.85;81.03
75745;BME280;74462;51.366;-0.222;2024-03-06T04:33:19;101629.02;;;4.88;80.94
75745;BME280;74462;51.366;-0.222;2024-03-06T04:34:24;101629.83;;;4.90;81.03
75745;BME280;74462;51.366;-0.222;2024-03-06T04:35:32;101630.59;;;4.92;81.11
75745;BME280;74462;51.366;-0.222;2024-03-06T04:36:39;101633.77;;;4.97;81.04
75745;BME280;74462;51.366;-0.222;2024-03-06T04:37:43;101636.86;;;4.99;80.96
75745;BME280;74462;51.366;-0.222;2024-03-06T04:38:47;101635.71;;;5.01;80.97
75745;BME280;74462;51.366;-0.222;2024-03-06T04:39:52;101639.45;;;5.04;80.82
75745;BME280;74462;51.366;-0.222;2024-03-06T04:40:56;101642.34;;;5.07;80.70
75745;BME280;74462;51.366;-0.222;2024-03-06T04:42:01;101639.79;;;5.08;80.80
75745;BME280;74462;51.366;-0.222;2024-03-06T04:43:06;101642.20;;;5.10;80.82
75745;BME280;74462;51.366;-0.222;2024-03-06T04:44:11;101640.88;;;5.12;80.96
75745;BME280;74462;51.366;-0.222;2024-03-06T04:45:16;101645.14;;;5.15;80.67
75745;BME280;74462;51.366;-0.222;2024-03-06T04:46:21;101647.48;;;5.17;80.53
75745;BME280;74462;51.366;-0.222;2024-03-06T04:47:26;101650.55;;;5.20;80.67
75745;BME280;74462;51.366;-0.222;2024-03-06T04:48:31;101653.27;;;5.23;80.63
75745;BME280;74462;51.366;-0.222;2024-03-06T04:49:35;101654.75;;;5.25;80.57
75745;BME280;74462;51.366;-0.222;2024-03-06T04:50:39;101660.63;;;5.28;80.64
75745;BME280;74462;51.366;-0.222;2024-03-06T04:51:44;101661.61;;;5.30;80.46
75745;BME280;74462;51.366;-0.222;2024-03-06T04:52:48;101663.27;;;5.32;80.50
75745;BME280;74462;51.366;-0.222;2024-03-06T04:53:53;101667.74;;;5.34;80.41
75745;BME280;74462;51.366;-0.222;2024-03-06T04:54:57;101669.05;;;5.37;80.37
75745;BME280;74462;51.366;-0.222;2024-03-06T04:56:02;101672.48;;;5.38;80.33
75745;BME280;74462;51.366;-0.222;2024-03-06T04:57:06;101669.08;;;5.40;80.28
75745;BME280;74462;51.366;-0.222;2024-03-06T04:58:11;101673.96;;;5.41;80.55
75745;BME280;74462;51.366;-0.222;2024-03-06T04:59:15;101675.50;;;5.42;80.61
75745;BME280;74462;51.366;-0.222;2024-03-06T05:00:20;101676.27;;;5.41;80.70
75745;BME280;74462;51.366;-0.222;2024-03-06T05:01:24;101674.48;;;5.41;80.68
75745;BME280;74462;51.366;-0.222;2024-03-06T05:02:29;101675.55;;;5.37;80.75
75745;BME280;74462;51.366;-0.222;2024-03-06T05:03:33;101672.21;;;5.37;80.78
75745;BME280;74462;51.366;-0.222;2024-03-06T05:04:38;101674.65;;;5.37;80.63
75745;BME280;74462;51.366;-0.222;2024-03-06T05:05:42;101673.55;;;5.34;81.05
75745;BME280;74462;51.366;-0.222;2024-03-06T05:06:47;101672.27;;;5.35;81.36
75745;BME280;74462;51.366;-0.222;2024-03-06T05:07:51;101673.88;;;5.39;81.02
75745;BME280;74462;51.366;-0.222;2024-03-06T05:08:55;101672.72;;;5.41;80.95
75745;BME280;74462;51.366;-0.222;2024-03-06T05:10:00;101676.74;;;5.42;81.27
75745;BME280;74462;51.366;-0.222;2024-03-06T05:11:05;101676.35;;;5.42;81.33
75745;BME280;74462;51.366;-0.222;2024-03-06T05:12:11;101677.88;;;5.45;81.41
75745;BME280;74462;51.366;-0.222;2024-03-06T05:13:15;101680.41;;;5.47;81.38
75745;BME280;74462;51.366;-0.222;2024-03-06T05:14:19;101680.85;;;5.49;81.26
75745;BME280;74462;51.366;-0.222;2024-03-06T05:15:24;101683.50;;;5.49;81.55
75745;BME280;74462;51.366;-0.222;2024-03-06T05:16:28;101686.39;;;5.51;81.76
75745;BME280;74462;51.366;-0.222;2024-03-06T05:17:32;101686.28;;;5.54;81.35
75745;BME280;74462;51.366;-0.222;2024-03-06T05:18:37;101685.83;;;5.56;81.47
75745;BME280;74462;51.366;-0.222;2024-03-06T05:19:41;101688.33;;;5.59;81.42
75745;BME280;74462;51.366;-0.222;2024-03-06T05:20:46;101689.34;;;5.60;81.43
75745;BME280;74462;51.366;-0.222;2024-03-06T05:21:51;101688.47;;;5.60;81.98
75745;BME280;74462;51.366;-0.222;2024-03-06T05:22:55;101689.91;;;5.59;82.04
75745;BME280;74462;51.366;-0.222;2024-03-06T05:23:59;101688.62;;;5.61;82.12
75745;BME280;74462;51.366;-0.222;2024-03-06T05:25:04;101685.23;;;5.62;81.98
75745;BME280;74462;51.366;-0.222;2024-03-06T05:26:09;101686.92;;;5.63;81.99
75745;BME280;74462;51.366;-0.222;2024-03-06T05:27:14;101688.59;;;5.65;81.85
75745;BME280;74462;51.366;-0.222;2024-03-06T05:28:20;101690.11;;;5.67;81.89
75745;BME280;74462;51.366;-0.222;2024-03-06T05:29:24;101689.91;;;5.67;81.85
75745;BME280;74462;51.366;-0.222;2024-03-06T05:30:29;101689.54;;;5.68;81.94
75745;BME280;74462;51.366;-0.222;2024-03-06T05:31:33;101692.63;;;5.70;81.86
75745;BME280;74462;51.366;-0.222;2024-03-06T05:32:38;101691.12;;;5.72;81.94
75745;BME280;74462;51.366;-0.222;2024-03-06T05:33:42;101692.29;;;5.74;81.67
75745;BME280;74462;51.366;-0.222;2024-03-06T05:34:46;101695.55;;;5.76;81.72
75745;BME280;74462;51.366;-0.222;2024-03-06T05:35:51;101695.81;;;5.77;81.81
75745;BME280;74462;51.366;-0.222;2024-03-06T05:36:55;101698.39;;;5.79;81.47
75745;BME280;74462;51.366;-0.222;2024-03-06T05:38:00;101700.05;;;5.81;81.44
75745;BME280;74462;51.366;-0.222;2024-03-06T05:39:04;101695.41;;;5.82;81.51
75745;BME280;74462;51.366;-0.222;2024-03-06T05:40:12;101698.73;;;5.83;81.75